KMYR/MYR METAR and TAF weather

Enter ICAO airport designator
Station Type Date Time Source
KMYR METAR 2022/08/12 13:56 UTC NOAA

KMYR 121356Z 25012KT 10SM CLR 27/22 A3001 RMK AO2 SLP161 T02720222


Station Type Date Time Source
KMYR Decoded METAR 2022/08/12 13:56 UTC NOAA

Myrtle Beach Air Force Base, SC, United States (KMYR) 33-41N 078-56W 8M
Aug 12, 2022 - 09:56 AM EDT / 2022.08.12 1356 UTC
Wind: from the WSW (250 degrees) at 14 MPH (12 KT):0
Visibility: 10 mile(s):0
Sky conditions: clear
Temperature: 81.0 F (27.2 C)
Dew Point: 72.0 F (22.2 C)
Relative Humidity: 74%
Pressure (altimeter): 30.01 in. Hg (1016 hPa)
ob: KMYR 121356Z 25012KT 10SM CLR 27/22 A3001 RMK AO2 SLP161 T02720222
cycle: 14

Station Type Date Time Source
KMYR TAF 2022/08/12 12:22 UTC NOAA

TAF KMYR 121120Z 1212/1312 24007KT P6SM VCSH FEW015 BKN150
FM121900 26007KT 6SM SHRA BR VCTS BKN035CB
TEMPO 1219/1223 4SM TSRA BKN015CB
FM122300 27005KT P6SM VCSH SCT015 BKN045
FM130500 04004KT P6SM BKN250

Example: see airport list